sensor_id;sensor_type;location;lat;lon;timestamp;P1;durP1;ratioP1;P2;durP2;ratioP2
48588;SDS011;34369;51.174;6.738;2023-05-25T00:02:10;32.47;;;30.10;;
48588;SDS011;34369;51.174;6.738;2023-05-25T00:04:44;34.43;;;32.00;;
48588;SDS011;34369;51.174;6.738;2023-05-25T00:07:18;35.80;;;33.30;;
48588;SDS011;34369;51.174;6.738;2023-05-25T00:09:51;34.10;;;31.70;;
48588;SDS011;34369;51.174;6.738;2023-05-25T00:12:24;35.83;;;33.33;;
48588;SDS011;34369;51.174;6.738;2023-05-25T00:14:56;35.43;;;32.50;;
48588;SDS011;34369;51.174;6.738;2023-05-25T00:17:28;36.30;;;33.80;;
48588;SDS011;34369;51.174;6.738;2023-05-25T00:20:01;35.17;;;32.47;;
48588;SDS011;34369;51.174;6.738;2023-05-25T00:22:41;35.20;;;32.70;;
48588;SDS011;34369;51.174;6.738;2023-05-25T00:25:15;34.50;;;32.10;;
48588;SDS011;34369;51.174;6.738;2023-05-25T00:27:49;35.90;;;33.10;;
48588;SDS011;34369;51.174;6.738;2023-05-25T00:30:22;37.13;;;34.13;;
48588;SDS011;34369;51.174;6.738;2023-05-25T00:32:55;37.17;;;34.40;;
48588;SDS011;34369;51.174;6.738;2023-05-25T00:35:28;36.23;;;33.63;;
48588;SDS011;34369;51.174;6.738;2023-05-25T00:38:02;37.30;;;34.40;;
48588;SDS011;34369;51.174;6.738;2023-05-25T00:40:35;34.23;;;31.67;;
48588;SDS011;34369;51.174;6.738;2023-05-25T00:43:09;36.63;;;33.70;;
48588;SDS011;34369;51.174;6.738;2023-05-25T00:45:43;36.47;;;33.27;;
48588;SDS011;34369;51.174;6.738;2023-05-25T00:48:15;36.83;;;33.97;;
48588;SDS011;34369;51.174;6.738;2023-05-25T00:57:54;37.23;;;34.43;;
48588;SDS011;34369;51.174;6.738;2023-05-25T01:00:31;36.10;;;33.10;;
48588;SDS011;34369;51.174;6.738;2023-05-25T01:03:07;33.40;;;30.87;;
48588;SDS011;34369;51.174;6.738;2023-05-25T01:05:47;35.90;;;33.33;;
48588;SDS011;34369;51.174;6.738;2023-05-25T01:08:22;36.87;;;34.13;;
48588;SDS011;34369;51.174;6.738;2023-05-25T01:10:57;35.23;;;32.67;;
48588;SDS011;34369;51.174;6.738;2023-05-25T01:13:31;35.53;;;32.93;;
48588;SDS011;34369;51.174;6.738;2023-05-25T01:16:07;36.05;;;33.60;;
48588;SDS011;34369;51.174;6.738;2023-05-25T01:18:40;35.17;;;32.70;;
48588;SDS011;34369;51.174;6.738;2023-05-25T01:21:16;37.63;;;34.73;;
48588;SDS011;34369;51.174;6.738;2023-05-25T01:24:01;36.10;;;33.47;;
48588;SDS011;34369;51.174;6.738;2023-05-25T01:26:54;34.17;;;31.67;;
48588;SDS011;34369;51.174;6.738;2023-05-25T01:29:32;36.00;;;33.50;;
48588;SDS011;34369;51.174;6.738;2023-05-25T01:32:07;35.87;;;33.27;;
48588;SDS011;34369;51.174;6.738;2023-05-25T01:34:40;36.93;;;34.17;;
48588;SDS011;34369;51.174;6.738;2023-05-25T01:37:16;36.80;;;33.80;;
48588;SDS011;34369;51.174;6.738;2023-05-25T01:39:52;37.20;;;34.43;;
48588;SDS011;34369;51.174;6.738;2023-05-25T01:42:24;36.67;;;34.03;;
48588;SDS011;34369;51.174;6.738;2023-05-25T01:44:57;38.10;;;35.17;;
48588;SDS011;34369;51.174;6.738;2023-05-25T01:47:31;36.80;;;34.20;;
48588;SDS011;34369;51.174;6.738;2023-05-25T01:50:13;35.47;;;32.53;;
48588;SDS011;34369;51.174;6.738;2023-05-25T01:52:56;36.87;;;34.17;;
48588;SDS011;34369;51.174;6.738;2023-05-25T01:55:40;36.77;;;33.97;;
48588;SDS011;34369;51.174;6.738;2023-05-25T01:58:17;38.43;;;35.80;;
48588;SDS011;34369;51.174;6.738;2023-05-25T02:00:50;37.40;;;34.67;;
48588;SDS011;34369;51.174;6.738;2023-05-25T02:03:24;36.80;;;34.33;;
48588;SDS011;34369;51.174;6.738;2023-05-25T02:05:57;37.13;;;34.53;;
48588;SDS011;34369;51.174;6.738;2023-05-25T02:08:31;36.90;;;34.40;;
48588;SDS011;34369;51.174;6.738;2023-05-25T02:11:03;36.40;;;33.70;;
48588;SDS011;34369;51.174;6.738;2023-05-25T02:13:35;38.23;;;35.53;;
48588;SDS011;34369;51.174;6.738;2023-05-25T02:16:08;37.60;;;35.00;;
48588;SDS011;34369;51.174;6.738;2023-05-25T02:18:40;35.17;;;32.50;;
48588;SDS011;34369;51.174;6.738;2023-05-25T02:21:13;36.43;;;33.73;;
48588;SDS011;34369;51.174;6.738;2023-05-25T02:23:47;36.93;;;34.43;;
48588;SDS011;34369;51.174;6.738;2023-05-25T02:26:21;36.17;;;33.57;;
48588;SDS011;34369;51.174;6.738;2023-05-25T02:28:53;36.20;;;33.60;;
48588;SDS011;34369;51.174;6.738;2023-05-25T02:31:25;37.03;;;34.50;;
48588;SDS011;34369;51.174;6.738;2023-05-25T02:33:58;36.87;;;34.23;;
48588;SDS011;34369;51.174;6.738;2023-05-25T02:36:30;35.40;;;32.87;;
48588;SDS011;34369;51.174;6.738;2023-05-25T02:39:05;36.80;;;34.17;;
48588;SDS011;34369;51.174;6.738;2023-05-25T02:41:38;36.23;;;33.73;;
48588;SDS011;34369;51.174;6.738;2023-05-25T02:44:11;39.23;;;36.53;;
48588;SDS011;34369;51.174;6.738;2023-05-25T02:46:43;37.77;;;35.37;;
48588;SDS011;34369;51.174;6.738;2023-05-25T02:49:15;35.87;;;32.93;;
48588;SDS011;34369;51.174;6.738;2023-05-25T02:51:47;37.80;;;35.10;;
48588;SDS011;34369;51.174;6.738;2023-05-25T02:54:21;37.27;;;34.63;;
48588;SDS011;34369;51.174;6.738;2023-05-25T02:56:54;37.73;;;34.90;;
48588;SDS011;34369;51.174;6.738;2023-05-25T02:59:26;38.00;;;35.30;;
48588;SDS011;34369;51.174;6.738;2023-05-25T03:01:59;38.07;;;35.27;;
48588;SDS011;34369;51.174;6.738;2023-05-25T03:04:33;37.30;;;34.77;;
48588;SDS011;34369;51.174;6.738;2023-05-25T03:07:08;35.83;;;33.33;;
48588;SDS011;34369;51.174;6.738;2023-05-25T03:09:42;35.93;;;33.43;;
48588;SDS011;34369;51.174;6.738;2023-05-25T03:12:14;36.33;;;33.67;;
48588;SDS011;34369;51.174;6.738;2023-05-25T03:14:46;38.63;;;35.77;;
48588;SDS011;34369;51.174;6.738;2023-05-25T03:17:19;37.27;;;34.57;;
48588;SDS011;34369;51.174;6.738;2023-05-25T03:19:51;37.70;;;35.20;;
48588;SDS011;34369;51.174;6.738;2023-05-25T03:22:24;36.97;;;34.27;;
48588;SDS011;34369;51.174;6.738;2023-05-25T03:24:59;37.27;;;34.73;;
48588;SDS011;34369;51.174;6.738;2023-05-25T03:27:31;36.70;;;34.10;;
48588;SDS011;34369;51.174;6.738;2023-05-25T03:30:04;37.13;;;34.53;;
48588;SDS011;34369;51.174;6.738;2023-05-25T03:32:39;37.83;;;35.03;;
48588;SDS011;34369;51.174;6.738;2023-05-25T03:35:11;36.47;;;33.83;;
48588;SDS011;34369;51.174;6.738;2023-05-25T03:37:43;38.67;;;35.97;;
48588;SDS011;34369;51.174;6.738;2023-05-25T03:40:19;36.77;;;34.17;;
48588;SDS011;34369;51.174;6.738;2023-05-25T03:42:51;38.27;;;35.47;;
48588;SDS011;34369;51.174;6.738;2023-05-25T03:45:23;40.30;;;37.40;;
48588;SDS011;34369;51.174;6.738;2023-05-25T03:47:56;37.77;;;35.17;;
48588;SDS011;34369;51.174;6.738;2023-05-25T03:50:29;37.20;;;34.50;;
48588;SDS011;34369;51.174;6.738;2023-05-25T03:53:03;40.27;;;37.23;;
48588;SDS011;34369;51.174;6.738;2023-05-25T03:55:37;38.13;;;35.33;;
48588;SDS011;34369;51.174;6.738;2023-05-25T03:58:10;38.97;;;36.00;;
48588;SDS011;34369;51.174;6.738;2023-05-25T04:00:45;37.60;;;34.87;;
48588;SDS011;34369;51.174;6.738;2023-05-25T04:03:19;38.40;;;35.50;;
48588;SDS011;34369;51.174;6.738;2023-05-25T04:05:53;39.27;;;36.43;;
48588;SDS011;34369;51.174;6.738;2023-05-25T04:08:27;38.07;;;35.17;;
48588;SDS011;34369;51.174;6.738;2023-05-25T04:11:02;38.17;;;35.27;;
48588;SDS011;34369;51.174;6.738;2023-05-25T04:13:35;38.43;;;35.53;;
48588;SDS011;34369;51.174;6.738;2023-05-25T04:16:09;40.50;;;37.40;;
48588;SDS011;34369;51.174;6.738;2023-05-25T04:18:43;37.93;;;34.90;;
48588;SDS011;34369;51.174;6.738;2023-05-25T04:21:15;39.17;;;36.37;;
48588;SDS011;34369;51.174;6.738;2023-05-25T04:23:48;38.10;;;35.43;;
48588;SDS011;34369;51.174;6.738;2023-05-25T04:26:23;39.93;;;36.67;;
48588;SDS011;34369;51.174;6.738;2023-05-25T04:28:56;37.80;;;34.93;;
48588;SDS011;34369;51.174;6.738;2023-05-25T04:31:32;39.07;;;36.07;;
48588;SDS011;34369;51.174;6.738;2023-05-25T04:34:10;39.77;;;36.80;;
48588;SDS011;34369;51.174;6.738;2023-05-25T04:36:44;39.57;;;36.50;;
48588;SDS011;34369;51.174;6.738;2023-05-25T04:39:17;38.53;;;35.63;;
48588;SDS011;34369;51.174;6.738;2023-05-25T04:41:51;39.17;;;36.17;;
48588;SDS011;34369;51.174;6.738;2023-05-25T04:44:26;40.00;;;37.03;;
48588;SDS011;34369;51.174;6.738;2023-05-25T04:47:01;40.40;;;37.23;;
48588;SDS011;34369;51.174;6.738;2023-05-25T04:49:34;40.23;;;37.03;;
48588;SDS011;34369;51.174;6.738;2023-05-25T04:52:07;41.10;;;37.93;;
48588;SDS011;34369;51.174;6.738;2023-05-25T04:54:41;40.50;;;36.97;;
48588;SDS011;34369;51.174;6.738;2023-05-25T04:57:18;37.47;;;34.57;;
48588;SDS011;34369;51.174;6.738;2023-05-25T04:59:50;40.43;;;37.00;;
48588;SDS011;34369;51.174;6.738;2023-05-25T05:02:22;40.53;;;37.53;;
48588;SDS011;34369;51.174;6.738;2023-05-25T05:04:55;39.53;;;36.33;;
48588;SDS011;34369;51.174;6.738;2023-05-25T05:07:30;39.23;;;36.37;;
48588;SDS011;34369;51.174;6.738;2023-05-25T05:10:02;38.70;;;35.80;;
48588;SDS011;34369;51.174;6.738;2023-05-25T05:12:41;40.80;;;37.63;;
48588;SDS011;34369;51.174;6.738;2023-05-25T05:15:14;38.33;;;35.33;;
48588;SDS011;34369;51.174;6.738;2023-05-25T05:17:47;39.37;;;36.27;;
48588;SDS011;34369;51.174;6.738;2023-05-25T05:20:20;39.90;;;36.90;;
48588;SDS011;34369;51.174;6.738;2023-05-25T05:22:53;39.63;;;36.60;;
48588;SDS011;34369;51.174;6.738;2023-05-25T05:25:26;39.20;;;36.10;;
48588;SDS011;34369;51.174;6.738;2023-05-25T05:28:01;38.70;;;35.77;;
48588;SDS011;34369;51.174;6.738;2023-05-25T05:30:34;41.80;;;38.37;;
48588;SDS011;34369;51.174;6.738;2023-05-25T05:33:08;41.40;;;38.03;;
48588;SDS011;34369;51.174;6.738;2023-05-25T05:35:40;39.27;;;36.07;;
48588;SDS011;34369;51.174;6.738;2023-05-25T05:38:13;41.03;;;37.57;;
48588;SDS011;34369;51.174;6.738;2023-05-25T05:40:47;38.77;;;35.77;;
48588;SDS011;34369;51.174;6.738;2023-05-25T05:43:23;38.67;;;35.33;;
48588;SDS011;34369;51.174;6.738;2023-05-25T05:45:56;41.23;;;37.93;;
48588;SDS011;34369;51.174;6.738;2023-05-25T05:48:29;39.65;;;36.30;;
48588;SDS011;34369;51.174;6.738;2023-05-25T05:51:02;39.45;;;36.40;;
48588;SDS011;34369;51.174;6.738;2023-05-25T05:53:36;39.55;;;36.00;;
48588;SDS011;34369;51.174;6.738;2023-05-25T05:56:15;39.13;;;36.13;;
48588;SDS011;34369;51.174;6.738;2023-05-25T05:58:49;39.05;;;36.15;;
48588;SDS011;34369;51.174;6.738;2023-05-25T06:01:23;40.53;;;37.30;;
48588;SDS011;34369;51.174;6.738;2023-05-25T06:03:55;39.15;;;35.80;;
48588;SDS011;34369;51.174;6.738;2023-05-25T06:06:28;38.20;;;35.33;;
48588;SDS011;34369;51.174;6.738;2023-05-25T06:09:02;38.50;;;35.50;;
48588;SDS011;34369;51.174;6.738;2023-05-25T06:11:36;40.38;;;36.70;;
48588;SDS011;34369;51.174;6.738;2023-05-25T06:14:11;37.80;;;34.42;;
48588;SDS011;34369;51.174;6.738;2023-05-25T06:16:44;37.28;;;34.10;;
48588;SDS011;34369;51.174;6.738;2023-05-25T06:19:17;38.08;;;35.08;;
48588;SDS011;34369;51.174;6.738;2023-05-25T06:21:50;37.20;;;34.42;;
48588;SDS011;34369;51.174;6.738;2023-05-25T06:24:22;37.55;;;34.42;;
48588;SDS011;34369;51.174;6.738;2023-05-25T06:26:58;35.35;;;32.65;;
48588;SDS011;34369;51.174;6.738;2023-05-25T06:29:37;36.58;;;33.58;;
48588;SDS011;34369;51.174;6.738;2023-05-25T06:32:10;36.78;;;33.72;;
48588;SDS011;34369;51.174;6.738;2023-05-25T06:34:42;36.22;;;33.42;;
48588;SDS011;34369;51.174;6.738;2023-05-25T06:37:15;38.25;;;35.15;;
48588;SDS011;34369;51.174;6.738;2023-05-25T06:39:49;38.20;;;34.83;;
48588;SDS011;34369;51.174;6.738;2023-05-25T06:42:22;37.78;;;34.83;;
48588;SDS011;34369;51.174;6.738;2023-05-25T06:45:01;37.53;;;34.67;;
48588;SDS011;34369;51.174;6.738;2023-05-25T06:47:46;37.10;;;34.17;;
48588;SDS011;34369;51.174;6.738;2023-05-25T06:50:19;37.42;;;34.25;;
48588;SDS011;34369;51.174;6.738;2023-05-25T06:52:52;35.70;;;32.92;;
48588;SDS011;34369;51.174;6.738;2023-05-25T06:55:32;36.47;;;33.50;;
48588;SDS011;34369;51.174;6.738;2023-05-25T06:58:11;35.58;;;32.58;;
48588;SDS011;34369;51.174;6.738;2023-05-25T07:00:47;35.42;;;32.33;;
48588;SDS011;34369;51.174;6.738;2023-05-25T07:03:20;34.55;;;31.95;;
48588;SDS011;34369;51.174;6.738;2023-05-25T07:05:54;35.22;;;32.17;;
48588;SDS011;34369;51.174;6.738;2023-05-25T07:08:28;34.65;;;31.85;;
48588;SDS011;34369;51.174;6.738;2023-05-25T07:11:02;34.03;;;31.33;;
48588;SDS011;34369;51.174;6.738;2023-05-25T07:13:38;34.83;;;32.07;;
48588;SDS011;34369;51.174;6.738;2023-05-25T07:16:15;35.05;;;32.08;;
48588;SDS011;34369;51.174;6.738;2023-05-25T07:18:47;34.55;;;31.60;;
48588;SDS011;34369;51.174;6.738;2023-05-25T07:21:20;35.03;;;32.20;;
48588;SDS011;34369;51.174;6.738;2023-05-25T07:23:54;34.15;;;31.20;;
48588;SDS011;34369;51.174;6.738;2023-05-25T07:26:26;33.60;;;30.90;;
48588;SDS011;34369;51.174;6.738;2023-05-25T07:29:00;34.50;;;31.60;;
48588;SDS011;34369;51.174;6.738;2023-05-25T07:31:34;34.20;;;31.40;;
48588;SDS011;34369;51.174;6.738;2023-05-25T07:34:06;33.60;;;30.80;;
48588;SDS011;34369;51.174;6.738;2023-05-25T07:36:39;33.03;;;30.38;;
48588;SDS011;34369;51.174;6.738;2023-05-25T07:39:11;34.17;;;31.45;;
48588;SDS011;34369;51.174;6.738;2023-05-25T07:41:44;34.47;;;31.75;;
48588;SDS011;34369;51.174;6.738;2023-05-25T07:44:17;32.88;;;29.95;;
48588;SDS011;34369;51.174;6.738;2023-05-25T07:46:52;32.97;;;30.00;;
48588;SDS011;34369;51.174;6.738;2023-05-25T07:49:26;31.00;;;28.42;;
48588;SDS011;34369;51.174;6.738;2023-05-25T07:51:58;31.67;;;28.85;;
48588;SDS011;34369;51.174;6.738;2023-05-25T07:54:32;31.42;;;28.92;;
48588;SDS011;34369;51.174;6.738;2023-05-25T07:57:08;30.67;;;28.27;;
48588;SDS011;34369;51.174;6.738;2023-05-25T07:59:42;30.83;;;28.33;;
48588;SDS011;34369;51.174;6.738;2023-05-25T08:02:16;30.33;;;27.90;;
48588;SDS011;34369;51.174;6.738;2023-05-25T08:04:50;31.42;;;28.83;;
48588;SDS011;34369;51.174;6.738;2023-05-25T08:07:46;29.30;;;26.90;;
48588;SDS011;34369;51.174;6.738;2023-05-25T08:10:18;27.98;;;25.65;;
48588;SDS011;34369;51.174;6.738;2023-05-25T08:12:52;27.95;;;25.63;;
48588;SDS011;34369;51.174;6.738;2023-05-25T08:15:26;26.25;;;24.02;;
48588;SDS011;34369;51.174;6.738;2023-05-25T08:18:00;25.90;;;23.65;;
48588;SDS011;34369;51.174;6.738;2023-05-25T08:20:36;25.30;;;23.13;;
48588;SDS011;34369;51.174;6.738;2023-05-25T08:23:08;25.45;;;23.30;;
48588;SDS011;34369;51.174;6.738;2023-05-25T08:25:41;27.05;;;24.65;;
48588;SDS011;34369;51.174;6.738;2023-05-25T08:28:13;25.13;;;22.92;;
48588;SDS011;34369;51.174;6.738;2023-05-25T08:30:45;26.45;;;24.00;;
48588;SDS011;34369;51.174;6.738;2023-05-25T08:33:19;26.02;;;23.88;;
48588;SDS011;34369;51.174;6.738;2023-05-25T08:35:51;27.08;;;24.38;;
48588;SDS011;34369;51.174;6.738;2023-05-25T08:38:24;26.77;;;24.33;;
48588;SDS011;34369;51.174;6.738;2023-05-25T08:41:00;25.67;;;23.38;;
48588;SDS011;34369;51.174;6.738;2023-05-25T08:43:35;25.15;;;23.05;;
48588;SDS011;34369;51.174;6.738;2023-05-25T08:46:08;24.00;;;22.00;;
48588;SDS011;34369;51.174;6.738;2023-05-25T08:52:38;22.35;;;20.42;;
48588;SDS011;34369;51.174;6.738;2023-05-25T08:55:16;22.92;;;20.83;;
48588;SDS011;34369;51.174;6.738;2023-05-25T08:57:53;23.25;;;21.33;;
48588;SDS011;34369;51.174;6.738;2023-05-25T09:00:31;24.17;;;22.08;;
48588;SDS011;34369;51.174;6.738;2023-05-25T09:03:26;23.25;;;21.30;;
48588;SDS011;34369;51.174;6.738;2023-05-25T09:06:02;22.70;;;20.70;;
48588;SDS011;34369;51.174;6.738;2023-05-25T09:08:35;22.38;;;20.48;;
48588;SDS011;34369;51.174;6.738;2023-05-25T09:11:18;22.17;;;20.23;;
48588;SDS011;34369;51.174;6.738;2023-05-25T09:14:08;22.25;;;20.35;;
48588;SDS011;34369;51.174;6.738;2023-05-25T09:16:57;21.77;;;19.80;;
48588;SDS011;34369;51.174;6.738;2023-05-25T09:20:13;21.25;;;19.35;;
48588;SDS011;34369;51.174;6.738;2023-05-25T09:23:11;21.13;;;19.13;;
48588;SDS011;34369;51.174;6.738;2023-05-25T09:25:50;21.35;;;19.35;;
48588;SDS011;34369;51.174;6.738;2023-05-25T09:28:30;20.52;;;18.85;;
48588;SDS011;34369;51.174;6.738;2023-05-25T09:31:13;22.15;;;20.17;;
48588;SDS011;34369;51.174;6.738;2023-05-25T09:33:50;21.98;;;20.15;;
48588;SDS011;34369;51.174;6.738;2023-05-25T09:44:07;23.02;;;21.02;;
48588;SDS011;34369;51.174;6.738;2023-05-25T09:46:41;22.42;;;20.52;;
48588;SDS011;34369;51.174;6.738;2023-05-25T09:49:14;23.10;;;21.00;;
48588;SDS011;34369;51.174;6.738;2023-05-25T09:51:46;24.25;;;22.00;;
48588;SDS011;34369;51.174;6.738;2023-05-25T09:54:21;23.33;;;21.40;;
48588;SDS011;34369;51.174;6.738;2023-05-25T09:56:56;23.35;;;21.45;;
48588;SDS011;34369;51.174;6.738;2023-05-25T09:59:34;24.80;;;22.65;;
48588;SDS011;34369;51.174;6.738;2023-05-25T10:02:08;24.90;;;22.70;;
48588;SDS011;34369;51.174;6.738;2023-05-25T10:04:40;24.55;;;22.60;;
48588;SDS011;34369;51.174;6.738;2023-05-25T10:07:13;24.80;;;22.77;;
48588;SDS011;34369;51.174;6.738;2023-05-25T10:09:46;25.00;;;23.00;;
48588;SDS011;34369;51.174;6.738;2023-05-25T10:12:23;25.13;;;23.13;;
48588;SDS011;34369;51.174;6.738;2023-05-25T10:14:57;25.02;;;22.92;;
48588;SDS011;34369;51.174;6.738;2023-05-25T10:17:34;24.45;;;22.55;;
48588;SDS011;34369;51.174;6.738;2023-05-25T10:20:10;25.98;;;23.98;;
48588;SDS011;34369;51.174;6.738;2023-05-25T10:22:47;25.20;;;23.23;;
48588;SDS011;34369;51.174;6.738;2023-05-25T10:25:25;25.40;;;23.50;;
48588;SDS011;34369;51.174;6.738;2023-05-25T10:28:06;24.40;;;22.55;;
48588;SDS011;34369;51.174;6.738;2023-05-25T10:30:46;24.67;;;22.75;;
48588;SDS011;34369;51.174;6.738;2023-05-25T10:33:23;24.48;;;22.58;;
48588;SDS011;34369;51.174;6.738;2023-05-25T10:35:57;24.63;;;22.65;;
48588;SDS011;34369;51.174;6.738;2023-05-25T10:38:32;24.73;;;22.83;;
48588;SDS011;34369;51.174;6.738;2023-05-25T10:41:08;24.83;;;22.92;;
48588;SDS011;34369;51.174;6.738;2023-05-25T10:43:43;24.98;;;23.05;;
48588;SDS011;34369;51.174;6.738;2023-05-25T10:49:12;24.98;;;22.98;;
48588;SDS011;34369;51.174;6.738;2023-05-25T10:51:57;25.15;;;23.15;;
48588;SDS011;34369;51.174;6.738;2023-05-25T10:54:33;25.53;;;23.53;;
48588;SDS011;34369;51.174;6.738;2023-05-25T10:57:09;25.98;;;23.88;;
48588;SDS011;34369;51.174;6.738;2023-05-25T10:59:51;25.27;;;23.27;;
48588;SDS011;34369;51.174;6.738;2023-05-25T11:06:04;24.48;;;22.58;;
48588;SDS011;34369;51.174;6.738;2023-05-25T11:08:49;24.48;;;22.67;;
48588;SDS011;34369;51.174;6.738;2023-05-25T11:11:59;25.20;;;23.10;;
48588;SDS011;34369;51.174;6.738;2023-05-25T11:15:28;24.10;;;22.20;;
48588;SDS011;34369;51.174;6.738;2023-05-25T11:18:02;23.35;;;21.45;;
48588;SDS011;34369;51.174;6.738;2023-05-25T11:20:37;24.13;;;22.10;;
48588;SDS011;34369;51.174;6.738;2023-05-25T11:23:22;23.33;;;21.52;;
48588;SDS011;34369;51.174;6.738;2023-05-25T11:26:01;22.85;;;21.05;;
48588;SDS011;34369;51.174;6.738;2023-05-25T11:28:44;23.60;;;21.75;;
48588;SDS011;34369;51.174;6.738;2023-05-25T11:31:20;23.35;;;21.45;;
48588;SDS011;34369;51.174;6.738;2023-05-25T11:34:00;23.17;;;21.38;;
48588;SDS011;34369;51.174;6.738;2023-05-25T11:36:34;24.73;;;22.70;;
48588;SDS011;34369;51.174;6.738;2023-05-25T11:39:08;23.85;;;22.02;;
48588;SDS011;34369;51.174;6.738;2023-05-25T11:41:45;23.20;;;21.40;;
48588;SDS011;34369;51.174;6.738;2023-05-25T11:44:31;24.20;;;22.30;;
48588;SDS011;34369;51.174;6.738;2023-05-25T11:47:07;24.17;;;22.10;;
48588;SDS011;34369;51.174;6.738;2023-05-25T11:49:48;23.08;;;21.23;;
48588;SDS011;34369;51.174;6.738;2023-05-25T11:52:23;22.48;;;20.77;;
48588;SDS011;34369;51.174;6.738;2023-05-25T11:54:55;23.70;;;21.80;;
48588;SDS011;34369;51.174;6.738;2023-05-25T11:57:29;23.27;;;21.38;;
48588;SDS011;34369;51.174;6.738;2023-05-25T12:00:06;24.27;;;22.42;;
48588;SDS011;34369;51.174;6.738;2023-05-25T12:02:56;23.10;;;21.30;;
48588;SDS011;34369;51.174;6.738;2023-05-25T12:05:35;22.50;;;20.63;;
48588;SDS011;34369;51.174;6.738;2023-05-25T12:08:08;22.98;;;21.17;;
48588;SDS011;34369;51.174;6.738;2023-05-25T12:10:48;22.75;;;20.95;;
48588;SDS011;34369;51.174;6.738;2023-05-25T12:13:22;22.10;;;19.85;;
48588;SDS011;34369;51.174;6.738;2023-05-25T12:15:55;21.88;;;20.17;;
48588;SDS011;34369;51.174;6.738;2023-05-25T12:18:31;22.50;;;20.50;;
48588;SDS011;34369;51.174;6.738;2023-05-25T12:23:40;23.75;;;21.70;;
48588;SDS011;34369;51.174;6.738;2023-05-25T12:26:19;23.38;;;21.58;;
48588;SDS011;34369;51.174;6.738;2023-05-25T12:28:58;24.15;;;22.35;;
48588;SDS011;34369;51.174;6.738;2023-05-25T12:31:39;23.63;;;21.73;;
48588;SDS011;34369;51.174;6.738;2023-05-25T12:37:20;24.23;;;22.30;;
48588;SDS011;34369;51.174;6.738;2023-05-25T12:39:55;23.85;;;21.98;;
48588;SDS011;34369;51.174;6.738;2023-05-25T12:42:29;23.92;;;22.02;;
48588;SDS011;34369;51.174;6.738;2023-05-25T12:45:04;25.23;;;23.23;;
48588;SDS011;34369;51.174;6.738;2023-05-25T12:47:44;23.90;;;22.10;;
48588;SDS011;34369;51.174;6.738;2023-05-25T12:50:37;23.88;;;22.05;;
48588;SDS011;34369;51.174;6.738;2023-05-25T12:53:29;24.35;;;22.45;;
48588;SDS011;34369;51.174;6.738;2023-05-25T12:56:18;24.48;;;22.48;;
48588;SDS011;34369;51.174;6.738;2023-05-25T12:58:52;24.08;;;22.08;;
48588;SDS011;34369;51.174;6.738;2023-05-25T13:01:29;24.33;;;22.42;;
48588;SDS011;34369;51.174;6.738;2023-05-25T13:04:03;24.00;;;22.17;;
48588;SDS011;34369;51.174;6.738;2023-05-25T13:06:38;24.63;;;22.55;;
48588;SDS011;34369;51.174;6.738;2023-05-25T13:09:13;24.25;;;22.35;;
48588;SDS011;34369;51.174;6.738;2023-05-25T13:11:46;23.67;;;21.77;;
48588;SDS011;34369;51.174;6.738;2023-05-25T13:14:31;24.25;;;22.35;;
48588;SDS011;34369;51.174;6.738;2023-05-25T13:17:05;25.27;;;23.20;;
48588;SDS011;34369;51.174;6.738;2023-05-25T13:19:38;24.77;;;22.88;;
48588;SDS011;34369;51.174;6.738;2023-05-25T13:22:18;24.77;;;22.88;;
48588;SDS011;34369;51.174;6.738;2023-05-25T13:25:25;25.45;;;23.35;;
48588;SDS011;34369;51.174;6.738;2023-05-25T13:27:59;24.80;;;22.80;;
48588;SDS011;34369;51.174;6.738;2023-05-25T13:30:31;25.85;;;23.83;;
48588;SDS011;34369;51.174;6.738;2023-05-25T13:42:27;24.33;;;22.58;;
48588;SDS011;34369;51.174;6.738;2023-05-25T13:44:59;24.42;;;22.50;;
48588;SDS011;34369;51.174;6.738;2023-05-25T13:47:32;24.65;;;22.65;;
48588;SDS011;34369;51.174;6.738;2023-05-25T13:50:06;24.67;;;22.73;;
48588;SDS011;34369;51.174;6.738;2023-05-25T13:52:40;23.83;;;22.02;;
48588;SDS011;34369;51.174;6.738;2023-05-25T13:55:16;24.90;;;22.90;;
48588;SDS011;34369;51.174;6.738;2023-05-25T13:57:49;24.83;;;22.83;;
48588;SDS011;34369;51.174;6.738;2023-05-25T14:00:23;25.20;;;23.10;;
48588;SDS011;34369;51.174;6.738;2023-05-25T14:02:58;23.63;;;21.73;;
48588;SDS011;34369;51.174;6.738;2023-05-25T14:05:36;24.67;;;22.67;;
48588;SDS011;34369;51.174;6.738;2023-05-25T14:08:15;24.08;;;22.08;;
48588;SDS011;34369;51.174;6.738;2023-05-25T14:10:51;23.67;;;21.88;;
48588;SDS011;34369;51.174;6.738;2023-05-25T14:13:25;23.45;;;21.55;;
48588;SDS011;34369;51.174;6.738;2023-05-25T14:15:58;24.77;;;22.80;;
48588;SDS011;34369;51.174;6.738;2023-05-25T14:18:34;23.43;;;21.63;;
48588;SDS011;34369;51.174;6.738;2023-05-25T14:21:08;23.65;;;21.65;;
48588;SDS011;34369;51.174;6.738;2023-05-25T14:23:42;23.65;;;21.77;;
48588;SDS011;34369;51.174;6.738;2023-05-25T14:26:16;23.85;;;22.00;;
48588;SDS011;34369;51.174;6.738;2023-05-25T14:28:49;23.73;;;21.83;;
48588;SDS011;34369;51.174;6.738;2023-05-25T14:31:23;23.38;;;21.58;;
48588;SDS011;34369;51.174;6.738;2023-05-25T14:33:56;24.85;;;22.75;;
48588;SDS011;34369;51.174;6.738;2023-05-25T14:36:31;23.10;;;21.40;;
48588;SDS011;34369;51.174;6.738;2023-05-25T14:39:07;23.70;;;21.70;;
48588;SDS011;34369;51.174;6.738;2023-05-25T14:41:42;23.70;;;21.63;;
48588;SDS011;34369;51.174;6.738;2023-05-25T14:44:17;24.60;;;22.70;;
48588;SDS011;34369;51.174;6.738;2023-05-25T14:46:50;23.48;;;21.58;;
48588;SDS011;34369;51.174;6.738;2023-05-25T14:49:23;23.67;;;21.83;;
48588;SDS011;34369;51.174;6.738;2023-05-25T14:51:56;22.92;;;21.13;;
48588;SDS011;34369;51.174;6.738;2023-05-25T14:54:31;24.05;;;22.05;;
48588;SDS011;34369;51.174;6.738;2023-05-25T14:57:06;23.48;;;21.58;;
48588;SDS011;34369;51.174;6.738;2023-05-25T14:59:39;23.85;;;22.05;;
48588;SDS011;34369;51.174;6.738;2023-05-25T15:02:12;23.80;;;21.70;;
48588;SDS011;34369;51.174;6.738;2023-05-25T15:04:47;23.23;;;21.33;;
48588;SDS011;34369;51.174;6.738;2023-05-25T15:07:23;23.50;;;21.70;;
48588;SDS011;34369;51.174;6.738;2023-05-25T15:09:56;24.02;;;21.92;;
48588;SDS011;34369;51.174;6.738;2023-05-25T15:12:30;23.10;;;21.40;;
48588;SDS011;34369;51.174;6.738;2023-05-25T15:15:03;23.00;;;21.20;;
48588;SDS011;34369;51.174;6.738;2023-05-25T15:17:38;23.52;;;21.55;;
48588;SDS011;34369;51.174;6.738;2023-05-25T15:20:11;22.95;;;21.05;;
48588;SDS011;34369;51.174;6.738;2023-05-25T15:22:44;23.75;;;21.85;;
48588;SDS011;34369;51.174;6.738;2023-05-25T15:25:17;23.95;;;21.98;;
48588;SDS011;34369;51.174;6.738;2023-05-25T15:27:51;24.02;;;22.02;;
48588;SDS011;34369;51.174;6.738;2023-05-25T15:30:25;23.92;;;21.88;;
48588;SDS011;34369;51.174;6.738;2023-05-25T15:33:00;23.10;;;21.27;;
48588;SDS011;34369;51.174;6.738;2023-05-25T15:35:33;23.48;;;21.48;;
48588;SDS011;34369;51.174;6.738;2023-05-25T15:38:05;23.58;;;21.67;;
48588;SDS011;34369;51.174;6.738;2023-05-25T15:40:43;23.85;;;21.95;;
48588;SDS011;34369;51.174;6.738;2023-05-25T15:43:21;23.50;;;21.70;;
48588;SDS011;34369;51.174;6.738;2023-05-25T15:45:53;22.30;;;20.60;;
48588;SDS011;34369;51.174;6.738;2023-05-25T15:48:27;22.67;;;20.88;;
48588;SDS011;34369;51.174;6.738;2023-05-25T15:50:59;23.55;;;21.58;;